Time;durP1;ratioP1;P1;durP2;ratioP2;P2;SDS_P1;SDS_P2;PMS_P1;PMS_P2;Temp;Humidity;BMP_temperature;BMP_pressure;BME280_temperature;BME280_humidity;BME280_pressure;Samples;Min_cycle;Max_cycle;Signal;HPM_P1;HPM_P2
2023/12/26 00:00:27;;;;;;;0.60;0.60;;;;;;;8.17;100.00;98242.31;4139742;28;20213;-49
2023/12/26 00:02:29;;;;;;;0.82;0.82;;;;;;;8.13;100.00;98239.25;4128859;28;20210;-50
2023/12/26 00:04:30;;;;;;;5.30;1.33;;;;;;;8.14;100.00;98240.91;4144435;28;20667;-50
2023/12/26 00:06:32;;;;;;;0.80;0.80;;;;;;;8.15;100.00;98249.91;4121967;28;20614;-49
2023/12/26 00:08:34;;;;;;;0.88;0.85;;;;;;;8.13;100.00;98241.13;4137815;28;20233;-51
2023/12/26 00:10:36;;;;;;;0.80;0.80;;;;;;;8.15;100.00;98236.28;4137334;28;20753;-51
2023/12/26 00:12:38;;;;;;;0.80;0.80;;;;;;;8.16;100.00;98243.41;4135631;28;20210;-49
2023/12/26 00:14:40;;;;;;;0.60;0.60;;;;;;;8.14;100.00;98235.44;4145002;28;20209;-49
2023/12/26 00:16:42;;;;;;;0.75;0.75;;;;;;;8.13;100.00;98227.50;4134005;28;20254;-50
2023/12/26 00:18:44;;;;;;;0.90;0.90;;;;;;;8.13;100.00;98222.91;4138531;28;20738;-51
2023/12/26 00:20:46;;;;;;;0.90;0.90;;;;;;;8.15;100.00;98237.09;4143484;28;20222;-50
2023/12/26 00:22:48;;;;;;;0.68;0.68;;;;;;;8.10;100.00;98225.28;4138619;28;20245;-50
2023/12/26 00:24:50;;;;;;;0.80;0.80;;;;;;;8.13;100.00;98222.06;4143980;28;20209;-49
2023/12/26 00:26:51;;;;;;;1.67;1.00;;;;;;;8.11;100.00;98225.03;4136814;28;20209;-49
2023/12/26 00:28:53;;;;;;;0.68;0.68;;;;;;;8.14;100.00;98218.25;4136981;28;20575;-49
2023/12/26 00:30:55;;;;;;;0.82;0.82;;;;;;;8.10;100.00;98207.00;4140985;28;20218;-50
2023/12/26 00:32:57;;;;;;;0.75;0.75;;;;;;;8.11;100.00;98218.75;4139038;28;20213;-50
2023/12/26 00:35:00;;;;;;;0.95;0.95;;;;;;;8.09;100.00;98215.47;4137856;28;20210;-51
2023/12/26 00:37:01;;;;;;;0.73;0.73;;;;;;;8.09;100.00;98227.16;4137926;28;20217;-51
2023/12/26 00:39:04;;;;;;;0.93;0.77;;;;;;;8.08;100.00;98221.97;4138328;28;20229;-51
2023/12/26 00:41:06;;;;;;;0.70;0.70;;;;;;;8.09;100.00;98237.25;4138436;28;20214;-51
2023/12/26 00:43:08;;;;;;;1.90;1.27;;;;;;;8.11;100.00;98210.59;4138084;28;20783;-51
2023/12/26 00:45:10;;;;;;;1.00;1.00;;;;;;;8.09;100.00;98229.06;4135662;28;20730;-50
2023/12/26 00:47:12;;;;;;;0.70;0.70;;;;;;;8.07;100.00;98223.03;4119017;28;20221;-51
2023/12/26 00:49:13;;;;;;;0.90;0.90;;;;;;;8.07;100.00;98229.31;4136300;28;20229;-51
2023/12/26 00:51:16;;;;;;;0.60;0.60;;;;;;;8.09;100.00;98223.63;4143114;28;20202;-50
2023/12/26 00:53:18;;;;;;;0.57;0.57;;;;;;;8.13;100.00;98232.97;4133687;28;20265;-50
2023/12/26 00:55:19;;;;;;;0.80;0.80;;;;;;;8.10;100.00;98225.28;4139028;28;20209;-50
2023/12/26 00:57:21;;;;;;;1.10;1.10;;;;;;;8.10;100.00;98228.00;4119357;28;20207;-50
2023/12/26 00:59:23;;;;;;;0.95;0.95;;;;;;;8.08;100.00;98224.69;4134941;28;20229;-51
2023/12/26 01:01:25;;;;;;;0.70;0.70;;;;;;;8.13;100.00;98230.22;4135276;28;20210;-52
2023/12/26 01:03:26;;;;;;;0.90;0.90;;;;;;;8.06;100.00;98230.38;4123015;28;20222;-50
2023/12/26 01:05:28;;;;;;;1.00;1.00;;;;;;;8.10;100.00;98233.44;4128124;28;20213;-49
2023/12/26 01:07:30;;;;;;;0.77;0.77;;;;;;;8.11;100.00;98246.00;4142777;28;20213;-51
2023/12/26 01:09:33;;;;;;;1.00;1.00;;;;;;;8.14;100.00;98245.50;4135585;28;20304;-52
2023/12/26 01:11:35;;;;;;;0.80;0.77;;;;;;;8.11;100.00;98252.28;4138468;28;21078;-50
2023/12/26 01:13:37;;;;;;;1.13;1.13;;;;;;;8.14;100.00;98250.97;4137760;28;21039;-50
2023/12/26 01:15:39;;;;;;;0.90;0.90;;;;;;;8.10;100.00;98255.25;4135286;28;20556;-52
2023/12/26 01:17:41;;;;;;;0.70;0.70;;;;;;;8.09;100.00;98243.50;4133897;28;20241;-50
2023/12/26 01:19:43;;;;;;;0.88;0.88;;;;;;;8.08;100.00;98257.41;4136838;28;20220;-51
2023/12/26 01:21:45;;;;;;;0.70;0.70;;;;;;;8.10;100.00;98250.63;4135998;28;20594;-50
2023/12/26 01:23:46;;;;;;;0.65;0.65;;;;;;;8.11;100.00;98262.34;4135812;28;20249;-51
2023/12/26 01:25:48;;;;;;;0.80;0.80;;;;;;;8.07;100.00;98255.72;4137409;28;20208;-51
2023/12/26 01:27:50;;;;;;;0.90;0.90;;;;;;;8.07;100.00;98255.72;4135920;28;20225;-51
2023/12/26 01:29:51;;;;;;;0.90;0.90;;;;;;;8.08;100.00;98262.84;4135003;28;20449;-51
2023/12/26 01:31:53;;;;;;;1.02;1.02;;;;;;;8.06;100.00;98264.97;4137286;28;20690;-51
2023/12/26 01:33:55;;;;;;;1.13;0.73;;;;;;;8.07;100.00;98270.19;4143056;28;20201;-51
2023/12/26 01:35:58;;;;;;;1.00;0.98;;;;;;;8.12;100.00;98261.28;4134425;28;20568;-51
2023/12/26 01:38:01;;;;;;;1.58;1.05;;;;;;;8.08;100.00;98260.94;4138025;28;20238;-51
2023/12/26 01:40:04;;;;;;;2.92;1.92;;;;;;;8.06;100.00;98265.81;4148570;28;20629;-51
2023/12/26 01:42:06;;;;;;;1.48;1.00;;;;;;;8.07;100.00;98267.47;4138001;28;20276;-51
2023/12/26 01:44:08;;;;;;;0.93;0.93;;;;;;;8.11;100.00;98267.81;4123872;28;20206;-52
2023/12/26 01:46:10;;;;;;;0.95;0.95;;;;;;;8.10;100.00;98266.16;4137419;28;20721;-51
2023/12/26 01:48:12;;;;;;;0.70;0.70;;;;;;;8.13;100.00;98265.66;4137801;28;20237;-50
2023/12/26 01:50:15;;;;;;;1.75;1.50;;;;;;;8.11;100.00;98267.81;4138410;28;20898;-51
2023/12/26 01:52:19;;;;;;;1.35;1.35;;;;;;;8.15;100.00;98279.91;4140143;28;20211;-51
2023/12/26 01:54:25;;;;;;;0.82;0.82;;;;;;;8.17;100.00;98269.56;4153214;28;20212;-49
2023/12/26 01:56:27;;;;;;;6.90;1.23;;;;;;;8.17;100.00;98283.19;4134710;28;20218;-50
2023/12/26 01:58:29;;;;;;;1.17;1.08;;;;;;;8.16;100.00;98289.72;4138837;28;20256;-50
2023/12/26 02:00:30;;;;;;;8.02;1.48;;;;;;;8.17;100.00;98285.91;4124904;28;20214;-51
2023/12/26 02:02:33;;;;;;;1.10;1.10;;;;;;;8.18;100.00;98284.84;4125048;28;20632;-50
2023/12/26 02:04:35;;;;;;;0.98;0.95;;;;;;;8.16;100.00;98289.72;4135375;28;20998;-51
2023/12/26 02:06:37;;;;;;;1.23;1.13;;;;;;;8.19;100.00;98292.81;4121324;28;20575;-50
2023/12/26 02:08:40;;;;;;;1.05;1.05;;;;;;;8.20;100.00;98293.63;4134987;28;20267;-51
2023/12/26 02:10:42;;;;;;;6.68;1.30;;;;;;;8.19;100.00;98286.50;4137636;28;20277;-50
2023/12/26 02:12:44;;;;;;;1.55;1.27;;;;;;;8.21;100.00;98296.13;4136058;28;20288;-52
2023/12/26 02:14:47;;;;;;;1.27;1.20;;;;;;;8.18;100.00;98290.31;4136705;28;20213;-51
2023/12/26 02:16:49;;;;;;;9.43;1.23;;;;;;;8.19;100.00;98284.66;4137934;28;20214;-50
2023/12/26 02:18:52;;;;;;;3.35;1.65;;;;;;;8.20;100.00;98283.56;4123235;28;20236;-52
2023/12/26 02:20:54;;;;;;;6.43;1.80;;;;;;;8.19;100.00;98298.28;4139213;28;20217;-50
2023/12/26 02:22:55;;;;;;;1.67;1.00;;;;;;;8.22;100.00;98296.97;4139653;28;20206;-49
2023/12/26 02:24:58;;;;;;;4.18;1.17;;;;;;;8.19;100.00;98291.94;4139174;28;20288;-50
2023/12/26 02:27:00;;;;;;;1.27;1.02;;;;;;;8.19;100.00;98302.84;4141003;28;20267;-50
2023/12/26 02:29:02;;;;;;;1.20;1.10;;;;;;;8.22;100.00;98291.53;4136992;28;20753;-50
2023/12/26 02:31:04;;;;;;;7.93;1.02;;;;;;;8.14;100.00;98294.56;4145265;28;20213;-51
2023/12/26 02:33:06;;;;;;;1.02;0.98;;;;;;;8.10;100.00;98293.41;4135990;28;20206;-50
2023/12/26 02:35:08;;;;;;;2.95;2.05;;;;;;;8.21;100.00;98306.22;4129307;28;20208;-50
2023/12/26 02:37:10;;;;;;;0.77;0.77;;;;;;;8.24;100.00;98294.81;4136686;28;20214;-50
2023/12/26 02:39:13;;;;;;;1.05;0.93;;;;;;;8.25;100.00;98301.94;4138453;28;20234;-50
2023/12/26 02:41:15;;;;;;;2.70;1.60;;;;;;;8.25;100.00;98301.94;4124796;28;20700;-50
2023/12/26 02:43:21;;;;;;;1.63;0.82;;;;;;;8.27;100.00;98297.06;4139577;28;21405;-51
2023/12/26 02:45:23;;;;;;;1.42;1.42;;;;;;;8.20;100.00;98301.81;4140158;28;20643;-51
2023/12/26 02:47:25;;;;;;;1.08;1.08;;;;;;;8.25;100.00;98297.31;4138065;28;20220;-50
2023/12/26 02:49:27;;;;;;;0.77;0.77;;;;;;;8.27;100.00;98294.31;4135031;28;20238;-51
2023/12/26 02:51:28;;;;;;;1.10;1.02;;;;;;;8.26;100.00;98303.59;4140691;28;20220;-51
2023/12/26 02:53:30;;;;;;;1.38;0.82;;;;;;;8.23;100.00;98304.06;4139427;28;20213;-50
2023/12/26 02:55:32;;;;;;;1.67;1.23;;;;;;;8.22;100.00;98302.44;4137166;28;20304;-50
2023/12/26 02:57:34;;;;;;;1.42;1.33;;;;;;;8.19;100.00;98300.13;4134729;28;20266;-51
2023/12/26 02:59:35;;;;;;;0.85;0.85;;;;;;;8.23;100.00;98293.16;4145322;28;20225;-49
2023/12/26 03:01:37;;;;;;;1.90;1.80;;;;;;;8.23;100.00;98298.63;4145687;28;20216;-48
2023/12/26 03:03:39;;;;;;;0.98;0.98;;;;;;;8.20;100.00;98299.09;4145673;28;20213;-50
2023/12/26 03:05:41;;;;;;;0.98;0.98;;;;;;;8.21;100.00;98295.31;4122928;28;20297;-49
2023/12/26 03:07:42;;;;;;;1.40;1.30;;;;;;;8.24;100.00;98289.38;4137029;28;20213;-50
2023/12/26 03:09:44;;;;;;;1.40;1.30;;;;;;;8.23;100.00;98293.16;4140037;28;20237;-51
2023/12/26 03:11:46;;;;;;;1.08;1.08;;;;;;;8.29;100.00;98293.03;4122460;28;20210;-50
2023/12/26 03:13:48;;;;;;;0.93;0.93;;;;;;;8.28;100.00;98290.56;4136646;28;20209;-50
2023/12/26 03:15:50;;;;;;;27.10;2.03;;;;;;;8.31;100.00;98279.16;4139691;28;20260;-50
2023/12/26 03:17:53;;;;;;;3.10;1.30;;;;;;;8.28;100.00;98287.84;4118258;28;20274;-51
2023/12/26 03:19:55;;;;;;;1.42;1.33;;;;;;;8.36;100.00;98287.44;4137864;28;20245;-50
2023/12/26 03:21:57;;;;;;;3.15;1.23;;;;;;;8.37;100.00;98289.94;4120348;28;20211;-49
2023/12/26 03:23:59;;;;;;;1.30;1.20;;;;;;;8.35;100.00;98281.16;4141867;28;20213;-50
2023/12/26 03:26:01;;;;;;;5.13;1.83;;;;;;;8.35;100.00;98283.06;4141621;28;20271;-49
2023/12/26 03:28:02;;;;;;;1.27;1.02;;;;;;;8.36;100.00;98282.00;4122631;28;20272;-49
2023/12/26 03:30:04;;;;;;;1.00;1.00;;;;;;;8.34;100.00;98278.69;4136693;28;20288;-49
2023/12/26 03:32:09;;;;;;;0.77;0.77;;;;;;;8.33;100.00;98287.91;4140440;28;20659;-50
2023/12/26 03:34:11;;;;;;;6.93;1.35;;;;;;;8.31;100.00;98293.63;4140574;28;20216;-48
2023/12/26 03:36:14;;;;;;;5.80;1.02;;;;;;;8.33;100.00;98277.00;4137156;28;20217;-50
2023/12/26 03:38:15;;;;;;;1.20;1.10;;;;;;;8.35;100.00;98281.16;4144953;28;20272;-50
2023/12/26 03:40:17;;;;;;;0.93;0.93;;;;;;;8.36;100.00;98276.53;4135685;28;20289;-50
2023/12/26 03:42:19;;;;;;;2.10;1.48;;;;;;;8.33;100.00;98272.41;4120552;28;20206;-50
2023/12/26 03:44:21;;;;;;;0.82;0.82;;;;;;;8.35;100.00;98274.91;4133727;28;21032;-50
2023/12/26 03:46:22;;;;;;;0.90;0.90;;;;;;;8.41;100.00;98280.19;4138410;28;20307;-50
2023/12/26 03:48:24;;;;;;;6.47;1.38;;;;;;;8.40;100.00;98269.53;4137743;28;20236;-49
2023/12/26 03:50:26;;;;;;;6.80;1.05;;;;;;;8.44;100.00;98273.44;4145536;28;20229;-51
2023/12/26 03:52:28;;;;;;;1.48;1.10;;;;;;;8.42;100.00;98275.59;4135291;28;20210;-51
2023/12/26 03:54:30;;;;;;;1.17;0.90;;;;;;;8.45;100.00;98272.34;4137624;28;20240;-48
2023/12/26 03:56:35;;;;;;;3.78;1.20;;;;;;;8.42;100.00;98272.84;4138036;28;20553;-50
2023/12/26 03:58:37;;;;;;;5.05;0.80;;;;;;;8.40;100.00;98272.25;4123767;28;20388;-50
2023/12/26 04:00:38;;;;;;;1.33;1.08;;;;;;;8.43;100.00;98277.22;4137056;28;20210;-51
2023/12/26 04:02:41;;;;;;;1.05;1.05;;;;;;;8.47;100.00;98278.38;4140876;28;20217;-49
2023/12/26 04:04:44;;;;;;;1.27;1.17;;;;;;;8.43;100.00;98277.22;4134621;28;20244;-50
2023/12/26 04:06:46;;;;;;;1.58;0.85;;;;;;;8.42;100.00;98283.75;4135584;28;20633;-50
2023/12/26 04:08:47;;;;;;;1.50;1.38;;;;;;;8.42;100.00;98289.22;4138224;28;20225;-50
2023/12/26 04:10:49;;;;;;;3.28;2.28;;;;;;;8.46;100.00;98288.47;4119883;28;20233;-49
2023/12/26 04:12:51;;;;;;;2.15;2.05;;;;;;;8.44;100.00;98287.91;4135535;28;20202;-50
2023/12/26 04:14:53;;;;;;;0.80;0.80;;;;;;;8.40;100.00;98283.16;4138827;28;20304;-50
2023/12/26 04:16:54;;;;;;;1.60;1.35;;;;;;;8.40;100.00;98288.59;4136253;28;20984;-50
2023/12/26 04:18:56;;;;;;;1.42;1.38;;;;;;;8.44;100.00;98290.63;4139610;28;20587;-49
2023/12/26 04:20:58;;;;;;;0.85;0.85;;;;;;;8.44;100.00;98281.59;4137054;28;20662;-50
2023/12/26 04:23:00;;;;;;;3.25;1.90;;;;;;;8.44;100.00;98278.88;4138085;28;20212;-52
2023/12/26 04:25:02;;;;;;;3.50;0.90;;;;;;;8.44;100.00;98296.09;4145419;28;20244;-50
2023/12/26 04:27:05;;;;;;;11.27;1.40;;;;;;;8.47;100.00;98294.75;4135195;28;20256;-51
2023/12/26 04:29:07;;;;;;;1.20;0.85;;;;;;;8.44;100.00;98289.78;4138409;28;20757;-49
2023/12/26 04:31:08;;;;;;;5.30;0.90;;;;;;;8.48;100.00;98296.44;4143470;28;20225;-50
2023/12/26 04:33:12;;;;;;;3.80;0.90;;;;;;;8.47;100.00;98292.03;4135109;28;20210;-50
2023/12/26 04:35:14;;;;;;;11.50;1.70;;;;;;;8.45;100.00;98291.44;4139728;28;20212;-50
2023/12/26 04:37:15;;;;;;;2.13;1.00;;;;;;;8.38;100.00;98299.78;4136883;28;20252;-49
2023/12/26 04:39:18;;;;;;;1.83;1.05;;;;;;;8.47;100.00;98297.47;4140387;28;20230;-49
2023/12/26 04:41:19;;;;;;;1.20;1.20;;;;;;;8.46;100.00;98298.53;4138903;28;20817;-49
2023/12/26 04:43:21;;;;;;;4.03;3.28;;;;;;;8.48;100.00;98296.44;4135790;28;20221;-55
2023/12/26 04:45:23;;;;;;;1.23;1.17;;;;;;;8.44;100.00;98292.53;4127726;28;20209;-50
2023/12/26 04:47:28;;;;;;;2.17;1.13;;;;;;;8.47;100.00;98298.31;4134790;28;20229;-51
2023/12/26 04:49:30;;;;;;;1.15;0.80;;;;;;;8.48;100.00;98299.16;4142422;28;20713;-49
2023/12/26 04:51:32;;;;;;;2.42;2.10;;;;;;;8.52;100.00;98300.31;4138197;28;20627;-49
2023/12/26 04:53:34;;;;;;;4.97;1.25;;;;;;;8.53;100.00;98299.22;4127316;28;20268;-51
2023/12/26 04:55:36;;;;;;;1.05;0.82;;;;;;;8.51;100.00;98301.38;4144284;28;20216;-50
2023/12/26 04:57:37;;;;;;;1.80;1.10;;;;;;;8.50;100.00;98305.19;4138009;28;20264;-51
2023/12/26 04:59:39;;;;;;;1.45;1.23;;;;;;;8.48;100.00;98299.16;4138616;28;20855;-50
2023/12/26 05:01:42;;;;;;;1.42;1.00;;;;;;;8.46;100.00;98315.75;4134138;28;20205;-49
2023/12/26 05:03:45;;;;;;;2.00;1.75;;;;;;;8.51;100.00;98307.69;4135851;28;20268;-50
2023/12/26 05:05:47;;;;;;;2.38;2.28;;;;;;;8.48;100.00;98313.59;4142424;28;20629;-50
2023/12/26 05:07:49;;;;;;;1.30;1.30;;;;;;;8.52;100.00;98324.84;4138969;28;20216;-49
2023/12/26 05:09:50;;;;;;;3.80;1.45;;;;;;;8.48;100.00;98312.78;4135382;28;20635;-49
2023/12/26 05:11:52;;;;;;;1.33;1.23;;;;;;;8.50;100.00;98321.53;4133630;28;20300;-50
2023/12/26 05:13:54;;;;;;;0.80;0.80;;;;;;;8.50;100.00;98310.63;4133532;28;20305;-50
2023/12/26 05:15:55;;;;;;;1.27;1.27;;;;;;;8.47;100.00;98313.84;4137383;28;20253;-51
2023/12/26 05:17:57;;;;;;;7.10;1.67;;;;;;;8.45;100.00;98315.97;4133795;28;20202;-50
2023/12/26 05:20:01;;;;;;;1.30;1.30;;;;;;;8.50;100.00;98314.19;4136656;28;20574;-50
2023/12/26 05:22:21;;;;;;;0.73;0.73;;;;;;;8.52;100.00;98319.41;4137144;28;20590;-50
2023/12/26 05:24:23;;;;;;;1.10;1.10;;;;;;;8.51;100.00;98323.19;4136141;28;20280;-49
2023/12/26 05:26:25;;;;;;;10.50;1.02;;;;;;;8.48;100.00;98324.50;4137103;28;20213;-49
2023/12/26 05:28:26;;;;;;;1.88;1.23;;;;;;;8.45;100.00;98329.63;4143723;28;20287;-49
2023/12/26 05:30:28;;;;;;;1.27;1.13;;;;;;;8.47;100.00;98333.75;4135030;28;20720;-49
2023/12/26 05:32:30;;;;;;;3.75;1.48;;;;;;;8.48;100.00;98340.88;4136180;28;20224;-49
2023/12/26 05:34:32;;;;;;;1.10;1.10;;;;;;;8.47;100.00;98338.38;4137605;28;20201;-49
2023/12/26 05:36:33;;;;;;;6.72;1.30;;;;;;;8.47;100.00;98341.94;4137061;28;20713;-49
2023/12/26 05:38:36;;;;;;;4.68;1.10;;;;;;;8.47;100.00;98338.38;4118760;28;20233;-48
2023/12/26 05:40:40;;;;;;;1.67;1.58;;;;;;;8.45;100.00;98351.44;4135107;28;20291;-49
2023/12/26 05:42:41;;;;;;;1.25;1.05;;;;;;;8.47;100.00;98349.28;4136281;28;20237;-49
2023/12/26 05:44:43;;;;;;;0.80;0.80;;;;;;;8.43;100.00;98348.13;4127368;28;20664;-50
2023/12/26 05:46:45;;;;;;;0.80;0.80;;;;;;;8.41;100.00;98351.06;4139283;28;20212;-49
2023/12/26 05:48:47;;;;;;;0.80;0.80;;;;;;;8.44;100.00;98355.22;4140478;28;20225;-48
2023/12/26 05:50:49;;;;;;;0.98;0.90;;;;;;;8.37;100.00;98359.97;4139460;28;20226;-49
2023/12/26 05:52:51;;;;;;;1.00;0.90;;;;;;;8.38;100.00;98359.75;4138746;28;20300;-49
2023/12/26 05:54:53;;;;;;;2.15;2.05;;;;;;;8.36;100.00;98361.06;4141255;28;20224;-50
2023/12/26 05:56:54;;;;;;;2.10;1.60;;;;;;;8.42;100.00;98366.38;4138632;28;20206;-49
2023/12/26 05:58:56;;;;;;;1.02;1.02;;;;;;;8.38;100.00;98369.81;4141069;28;20229;-49
2023/12/26 06:00:58;;;;;;;0.75;0.75;;;;;;;8.36;100.00;98369.22;4137500;28;20201;-48
2023/12/26 06:03:00;;;;;;;0.98;0.98;;;;;;;8.38;100.00;98367.09;4141019;28;20630;-50
2023/12/26 06:05:02;;;;;;;2.20;1.38;;;;;;;8.34;100.00;98374.09;4146675;28;20248;-50
2023/12/26 06:07:04;;;;;;;0.90;0.90;;;;;;;8.26;100.00;98369.00;4136845;28;20621;-50
2023/12/26 06:09:05;;;;;;;2.08;0.88;;;;;;;8.21;100.00;98371.63;4140009;28;20229;-51
2023/12/26 06:11:08;;;;;;;0.95;0.93;;;;;;;8.19;100.00;98373.72;4139082;28;20225;-49
2023/12/26 06:13:10;;;;;;;2.22;2.03;;;;;;;8.13;100.00;98380.94;4137694;28;20237;-49
2023/12/26 06:15:12;;;;;;;0.70;0.70;;;;;;;8.13;100.00;98391.00;4137126;28;20256;-49
2023/12/26 06:17:13;;;;;;;1.05;1.05;;;;;;;8.10;100.00;98410.56;4137652;28;20722;-51
2023/12/26 06:19:15;;;;;;;1.38;1.15;;;;;;;8.09;100.00;98406.19;4144885;28;20267;-49
2023/12/26 06:21:17;;;;;;;1.85;1.75;;;;;;;8.09;100.00;98406.19;4140178;28;20645;-49
2023/12/26 06:23:19;;;;;;;1.60;1.33;;;;;;;7.99;100.00;98411.38;4140273;28;20655;-50
2023/12/26 06:25:21;;;;;;;3.95;0.88;;;;;;;8.00;100.00;98404.88;4141020;28;20592;-49
2023/12/26 06:27:23;;;;;;;1.17;1.15;;;;;;;8.05;100.00;98413.19;4138535;28;20831;-49
2023/12/26 06:29:25;;;;;;;2.42;1.63;;;;;;;8.01;100.00;98412.81;4142235;28;20329;-49
2023/12/26 06:31:26;;;;;;;1.52;1.42;;;;;;;7.99;100.00;98411.38;4146836;28;20225;-48
2023/12/26 06:33:28;;;;;;;1.80;1.70;;;;;;;8.02;100.00;98410.94;4138896;28;20786;-49
2023/12/26 06:35:30;;;;;;;0.73;0.73;;;;;;;8.03;100.00;98418.03;4143418;28;20442;-50
2023/12/26 06:37:32;;;;;;;1.55;1.30;;;;;;;8.00;100.00;98419.34;4123442;28;20280;-50
2023/12/26 06:39:35;;;;;;;1.20;1.05;;;;;;;8.00;100.00;98429.41;4138359;28;20735;-48
2023/12/26 06:41:37;;;;;;;1.23;1.23;;;;;;;7.99;100.00;98422.28;4145831;28;20209;-49
2023/12/26 06:43:38;;;;;;;5.05;1.83;;;;;;;8.02;100.00;98430.81;4140371;28;20308;-49
2023/12/26 06:45:40;;;;;;;1.13;1.13;;;;;;;7.99;100.00;98427.75;4139696;28;20206;-50
2023/12/26 06:47:42;;;;;;;16.77;2.45;;;;;;;7.98;100.00;98436.97;4137599;28;20236;-49
2023/12/26 06:49:45;;;;;;;5.45;3.17;;;;;;;7.97;100.00;98435.31;4139956;28;20209;-50
2023/12/26 06:51:50;;;;;;;1.95;1.55;;;;;;;7.98;100.00;98436.97;4139003;28;20232;-48
2023/12/26 06:53:52;;;;;;;3.53;1.42;;;;;;;7.94;100.00;98441.22;4140646;28;20637;-49
2023/12/26 06:55:53;;;;;;;1.13;1.05;;;;;;;7.96;100.00;98439.94;4136376;28;20210;-49
2023/12/26 06:57:55;;;;;;;0.95;0.95;;;;;;;7.92;100.00;98437.91;4123567;28;20214;-49
2023/12/26 06:59:57;;;;;;;4.05;2.70;;;;;;;7.90;100.00;98437.34;4136622;28;20210;-49
2023/12/26 07:01:59;;;;;;;2.15;2.05;;;;;;;7.86;100.00;98438.84;4137593;28;20202;-49
2023/12/26 07:04:01;;;;;;;0.95;0.90;;;;;;;7.83;100.00;98439.34;4144246;28;20670;-49
2023/12/26 07:06:02;;;;;;;6.60;1.83;;;;;;;7.84;100.00;98451.88;4139667;28;20590;-49
2023/12/26 07:08:05;;;;;;;0.70;0.70;;;;;;;7.82;100.00;98454.84;4139209;28;20229;-49
2023/12/26 07:10:07;;;;;;;1.23;1.10;;;;;;;7.80;100.00;98456.13;4125511;28;20268;-49
2023/12/26 07:12:09;;;;;;;4.15;1.38;;;;;;;7.77;100.00;98453.88;4138662;28;20280;-48
2023/12/26 07:14:11;;;;;;;4.50;1.85;;;;;;;7.80;100.00;98450.69;4136913;28;20687;-49
2023/12/26 07:16:12;;;;;;;12.82;1.85;;;;;;;7.73;100.00;98471.75;4138122;28;20622;-50
2023/12/26 07:18:14;;;;;;;1.33;1.10;;;;;;;7.78;100.00;98469.16;4134407;28;20226;-49
2023/12/26 07:20:16;;;;;;;1.33;1.23;;;;;;;7.80;100.00;98467.03;4139393;28;20221;-50
2023/12/26 07:22:18;;;;;;;1.00;1.00;;;;;;;7.78;100.00;98474.63;4136722;28;20202;-51
2023/12/26 07:24:20;;;;;;;4.40;1.05;;;;;;;7.77;100.00;98476.53;4137913;28;20252;-49
2023/12/26 07:26:22;;;;;;;1.10;1.08;;;;;;;7.74;100.00;98474.25;4140179;28;20288;-50
2023/12/26 07:28:24;;;;;;;1.23;1.13;;;;;;;7.76;100.00;98476.75;4138823;28;20234;-48
2023/12/26 07:30:26;;;;;;;1.92;1.05;;;;;;;7.74;100.00;98478.84;4145699;28;20237;-49
2023/12/26 07:32:28;;;;;;;1.08;1.08;;;;;;;7.73;100.00;98474.47;4145822;28;20570;-50
2023/12/26 07:34:30;;;;;;;1.88;1.40;;;;;;;7.74;100.00;98489.75;4140546;28;20232;-50
2023/12/26 07:36:31;;;;;;;1.92;1.50;;;;;;;7.72;100.00;98487.28;4138470;28;20767;-50
2023/12/26 07:38:33;;;;;;;0.98;0.90;;;;;;;7.69;100.00;98482.28;4144374;28;20707;-50
2023/12/26 07:40:35;;;;;;;0.70;0.70;;;;;;;7.76;100.00;98499.34;4134291;28;20218;-48
2023/12/26 07:42:37;;;;;;;1.65;1.55;;;;;;;7.73;100.00;98499.81;4139336;28;20921;-50
2023/12/26 07:44:38;;;;;;;0.90;0.90;;;;;;;7.70;100.00;98502.19;4138412;28;20596;-49
2023/12/26 07:46:40;;;;;;;1.38;1.38;;;;;;;7.73;100.00;98509.88;4140082;28;20217;-49
2023/12/26 07:48:42;;;;;;;1.10;1.10;;;;;;;7.81;100.00;98509.56;4140956;28;21196;-49
2023/12/26 07:50:44;;;;;;;0.80;0.80;;;;;;;7.75;100.00;98521.38;4138783;28;20675;-50
2023/12/26 07:52:46;;;;;;;0.82;0.82;;;;;;;7.68;100.00;98528.84;4137842;28;20217;-50
2023/12/26 07:54:47;;;;;;;3.40;1.27;;;;;;;7.73;100.00;98532.50;4138569;28;20217;-51
2023/12/26 07:56:49;;;;;;;2.78;1.92;;;;;;;7.76;100.00;98540.19;4144269;28;20202;-49
2023/12/26 07:58:52;;;;;;;1.77;1.67;;;;;;;7.72;100.00;98530.00;4136100;28;20225;-50
2023/12/26 08:00:54;;;;;;;5.25;1.17;;;;;;;7.77;100.00;98552.78;4139704;28;20806;-49
2023/12/26 08:02:56;;;;;;;1.83;1.65;;;;;;;7.73;100.00;98553.44;4136707;28;20214;-50
2023/12/26 08:04:58;;;;;;;1.90;1.50;;;;;;;7.76;100.00;98555.72;4136170;28;20210;-50
2023/12/26 08:07:00;;;;;;;1.55;1.25;;;;;;;7.71;100.00;98559.16;4137751;28;20206;-49
2023/12/26 08:09:03;;;;;;;0.80;0.80;;;;;;;7.72;100.00;98557.25;4144904;28;20300;-49
2023/12/26 08:11:05;;;;;;;1.45;1.35;;;;;;;7.70;100.00;98562.91;4138332;28;20229;-50
2023/12/26 08:13:07;;;;;;;1.63;1.10;;;;;;;7.67;100.00;98554.38;4139788;28;20717;-49
2023/12/26 08:15:09;;;;;;;1.00;1.00;;;;;;;7.72;100.00;98558.09;4133665;28;20209;-50
2023/12/26 08:17:12;;;;;;;1.25;1.20;;;;;;;7.70;100.00;98562.09;4135515;28;20778;-51
2023/12/26 08:19:14;;;;;;;0.90;0.90;;;;;;;7.72;100.00;98554.53;4128547;28;20285;-50
2023/12/26 08:21:20;;;;;;;0.98;0.98;;;;;;;7.73;100.00;98553.44;4136266;28;20252;-51
2023/12/26 08:23:21;;;;;;;1.17;1.17;;;;;;;7.68;100.00;98556.06;4136993;28;20654;-50
2023/12/26 08:25:23;;;;;;;0.95;0.95;;;;;;;7.65;100.00;98561.94;4133736;28;20819;-49
2023/12/26 08:27:25;;;;;;;1.00;1.00;;;;;;;7.62;100.00;98557.78;4126543;28;20217;-50
2023/12/26 08:29:26;;;;;;;1.00;1.00;;;;;;;7.62;100.00;98567.88;4142337;28;20276;-50
2023/12/26 08:31:28;;;;;;;1.00;1.00;;;;;;;7.62;100.00;98562.44;4135939;28;20233;-49
2023/12/26 08:33:31;;;;;;;3.15;0.88;;;;;;;7.66;100.00;98569.06;4137749;28;20285;-49
2023/12/26 08:35:34;;;;;;;0.80;0.80;;;;;;;7.63;100.00;98564.09;4134884;28;20222;-49
2023/12/26 08:37:36;;;;;;;0.73;0.73;;;;;;;7.64;100.00;98565.75;4146809;28;20240;-49
2023/12/26 08:39:38;;;;;;;3.35;1.02;;;;;;;7.66;100.00;98578.06;4136761;28;20241;-49
2023/12/26 08:41:39;;;;;;;4.10;1.95;;;;;;;7.64;100.00;98576.63;4133982;28;20261;-50
2023/12/26 08:43:41;;;;;;;1.00;0.70;;;;;;;7.70;100.00;98573.81;4133213;28;20527;-50
2023/12/26 08:45:43;;;;;;;1.33;0.85;;;;;;;7.68;100.00;98586.84;4123128;28;20211;-50
2023/12/26 08:47:45;;;;;;;0.90;0.88;;;;;;;7.71;100.00;98582.81;4131718;28;20931;-50
2023/12/26 08:49:47;;;;;;;1.13;1.13;;;;;;;7.76;100.00;98591.94;4135835;28;20290;-49
2023/12/26 08:51:49;;;;;;;0.70;0.70;;;;;;;7.74;100.00;98598.69;4120974;28;20234;-49
2023/12/26 08:53:52;;;;;;;1.10;1.10;;;;;;;7.73;100.00;98605.19;4125569;28;20269;-49
2023/12/26 08:55:53;;;;;;;1.17;1.17;;;;;;;7.79;100.00;98609.72;4134247;28;20861;-49
2023/12/26 08:57:55;;;;;;;0.70;0.70;;;;;;;7.78;100.00;98616.25;4138055;28;20651;-49
2023/12/26 08:59:57;;;;;;;0.80;0.80;;;;;;;7.74;100.00;98620.47;4136444;28;20302;-50
2023/12/26 09:01:58;;;;;;;0.65;0.65;;;;;;;7.71;100.00;98623.66;4134232;28;20214;-50
2023/12/26 09:04:00;;;;;;;0.80;0.80;;;;;;;7.77;100.00;98620.03;4119830;28;20229;-50
2023/12/26 09:06:02;;;;;;;0.80;0.80;;;;;;;7.78;100.00;98627.97;4137656;28;20216;-49
2023/12/26 09:08:04;;;;;;;0.65;0.65;;;;;;;7.73;100.00;98636.00;4142645;28;20225;-50
2023/12/26 09:10:07;;;;;;;0.65;0.65;;;;;;;7.73;100.00;98629.72;4138190;28;20210;-50
2023/12/26 09:12:09;;;;;;;0.70;0.70;;;;;;;7.73;100.00;98629.72;4138290;28;20806;-50
2023/12/26 09:14:14;;;;;;;1.05;1.05;;;;;;;7.74;100.00;98625.94;4137401;28;20276;-49
2023/12/26 09:16:15;;;;;;;0.70;0.70;;;;;;;7.74;100.00;98636.81;4151352;28;20208;-49
2023/12/26 09:18:17;;;;;;;0.65;0.65;;;;;;;7.73;100.00;98629.72;4141393;28;20755;-50
2023/12/26 09:20:19;;;;;;;0.73;0.73;;;;;;;7.79;100.00;98628.81;4133592;28;20213;-50
2023/12/26 09:22:21;;;;;;;0.93;0.93;;;;;;;7.75;100.00;98627.63;4137904;28;20209;-51
2023/12/26 09:24:23;;;;;;;0.70;0.70;;;;;;;7.73;100.00;98640.59;4132132;28;20668;-49
2023/12/26 09:26:24;;;;;;;0.80;0.80;;;;;;;7.77;100.00;98652.72;4136664;28;20218;-50
2023/12/26 09:28:26;;;;;;;1.00;1.00;;;;;;;7.77;100.00;98652.72;4137717;28;20229;-56
2023/12/26 09:30:28;;;;;;;0.60;0.60;;;;;;;7.78;100.00;98659.81;4135472;28;20213;-49
2023/12/26 09:32:30;;;;;;;0.82;0.82;;;;;;;7.72;100.00;98667.03;4134974;28;20670;-50
2023/12/26 09:34:32;;;;;;;0.77;0.77;;;;;;;7.81;100.00;98664.84;4134263;28;20210;-50